Time;durP1;ratioP1;P1;durP2;ratioP2;P2;SDS_P1;SDS_P2;PMS_P1;PMS_P2;Temp;Humidity;BMP_temperature;BMP_pressure;BME280_temperature;BME280_humidity;BME280_pressure;Samples;Min_cycle;Max_cycle;Signal;HPM_P1;HPM_P2
2020/12/25 00:00:44;;;;;;;12.80;6.25;;;3.90;99.90;;;;;;5052465;28;20052;-72
2020/12/25 00:03:14;;;;;;;15.73;5.35;;;3.90;99.90;;;;;;5052257;28;20033;-72
2020/12/25 00:05:43;;;;;;;9.68;5.40;;;3.90;99.90;;;;;;5034351;28;20622;-72
2020/12/25 00:08:08;;;;;;;13.15;5.40;;;3.90;99.90;;;;;;5033841;28;20079;-72
2020/12/25 00:10:34;;;;;;;11.93;5.15;;;3.90;99.90;;;;;;5052280;28;20463;-72
2020/12/25 00:12:59;;;;;;;13.57;5.75;;;3.90;99.90;;;;;;5034402;28;20060;-72
2020/12/25 00:15:25;;;;;;;10.98;5.57;;;4.00;99.90;;;;;;5051913;28;20062;-73
2020/12/25 00:17:50;;;;;;;13.98;5.03;;;3.90;99.90;;;;;;5051423;28;20031;-72
2020/12/25 00:20:16;;;;;;;13.05;6.18;;;3.90;99.90;;;;;;5034097;28;20503;-72
2020/12/25 00:22:41;;;;;;;12.38;5.72;;;3.90;99.90;;;;;;5051989;28;20032;-72
2020/12/25 00:25:07;;;;;;;14.00;5.97;;;4.20;99.90;;;;;;5033924;28;20183;-72
2020/12/25 00:27:33;;;;;;;11.77;5.25;;;4.20;99.90;;;;;;5033341;28;20029;-72
2020/12/25 00:29:58;;;;;;;12.15;5.30;;;4.30;99.90;;;;;;5033876;28;20031;-72
2020/12/25 00:32:24;;;;;;;11.70;4.95;;;4.40;99.90;;;;;;5051485;28;20484;-72
2020/12/25 00:34:49;;;;;;;16.23;6.03;;;4.40;99.90;;;;;;5033854;28;20106;-71
2020/12/25 00:37:15;;;;;;;14.70;5.43;;;4.50;99.90;;;;;;5033142;28;20029;-72
2020/12/25 00:39:40;;;;;;;13.75;5.47;;;4.40;99.90;;;;;;5033660;28;20079;-72
2020/12/25 00:42:06;;;;;;;10.40;5.72;;;4.50;99.90;;;;;;5051486;28;20025;-72
2020/12/25 00:44:31;;;;;;;14.40;5.15;;;4.50;99.90;;;;;;5051532;28;20071;-72
2020/12/25 00:46:57;;;;;;;11.52;5.40;;;4.40;99.90;;;;;;5050720;28;20032;-72
2020/12/25 00:49:22;;;;;;;12.25;6.10;;;4.50;99.90;;;;;;5033442;28;20025;-72
2020/12/25 00:51:48;;;;;;;15.73;5.63;;;4.60;99.90;;;;;;5033426;28;20040;-72
2020/12/25 00:54:13;;;;;;;12.55;5.22;;;4.40;99.90;;;;;;5051305;28;20029;-72
2020/12/25 00:56:39;;;;;;;13.13;5.93;;;4.30;99.90;;;;;;5050482;28;20492;-72
2020/12/25 00:59:05;;;;;;;13.85;5.53;;;4.30;99.90;;;;;;5033372;28;20487;-72
2020/12/25 01:01:30;;;;;;;13.13;5.78;;;4.40;99.90;;;;;;5051213;28;20032;-72
2020/12/25 01:03:56;;;;;;;13.55;5.72;;;4.50;99.90;;;;;;5051207;28;20029;-72
2020/12/25 01:06:22;;;;;;;11.57;5.07;;;4.50;99.90;;;;;;5032391;28;20040;-72
2020/12/25 01:08:49;;;;;;;12.35;5.05;;;4.40;99.90;;;;;;5032835;28;20039;-72
2020/12/25 01:11:17;;;;;;;11.07;4.72;;;4.30;99.90;;;;;;5049733;28;20056;-72
2020/12/25 01:13:45;;;;;;;9.70;4.75;;;4.30;99.90;;;;;;5050780;28;20021;-72
2020/12/25 01:16:16;;;;;;;13.18;5.38;;;4.40;99.90;;;;;;5048809;28;20032;-72
2020/12/25 01:18:43;;;;;;;10.10;5.03;;;4.50;99.90;;;;;;5050719;28;20021;-72
2020/12/25 01:21:09;;;;;;;11.43;5.03;;;4.60;99.90;;;;;;5032812;28;20026;-72
2020/12/25 01:23:35;;;;;;;11.48;5.22;;;4.40;99.90;;;;;;5032733;28;20188;-73
2020/12/25 01:26:00;;;;;;;15.50;5.82;;;4.30;99.90;;;;;;5050187;28;20025;-73
2020/12/25 01:28:26;;;;;;;12.85;5.55;;;4.30;99.90;;;;;;5032432;28;20028;-73
2020/12/25 01:30:52;;;;;;;11.30;5.20;;;4.40;99.90;;;;;;5032509;28;20032;-73
2020/12/25 01:33:17;;;;;;;14.60;5.22;;;4.40;99.90;;;;;;5050517;28;20059;-72
2020/12/25 01:35:43;;;;;;;13.40;5.40;;;4.40;99.90;;;;;;5050422;28;20025;-72
2020/12/25 01:38:08;;;;;;;21.70;5.55;;;4.40;99.90;;;;;;5031916;28;20467;-72
2020/12/25 01:40:34;;;;;;;15.23;5.50;;;4.60;99.90;;;;;;5050469;28;20437;-73
2020/12/25 01:43:00;;;;;;;10.00;5.55;;;4.60;99.90;;;;;;5050438;28;20029;-73
2020/12/25 01:45:25;;;;;;;12.93;5.68;;;4.40;99.90;;;;;;5052670;28;20036;-72
2020/12/25 01:47:53;;;;;;;12.55;5.72;;;4.40;99.90;;;;;;5053873;28;20163;-72
2020/12/25 01:50:20;;;;;;;14.73;5.25;;;4.50;99.90;;;;;;5054609;28;20040;-72
2020/12/25 01:52:47;;;;;;;16.13;5.78;;;4.50;99.90;;;;;;5054475;28;20495;-72
2020/12/25 01:55:14;;;;;;;9.15;5.13;;;4.50;99.70;;;;;;5036803;28;20033;-72
2020/12/25 01:57:41;;;;;;;15.95;6.30;;;4.60;99.90;;;;;;5053873;28;20020;-72
2020/12/25 02:00:08;;;;;;;13.85;6.18;;;4.50;99.90;;;;;;5036918;28;20035;-72
2020/12/25 02:02:33;;;;;;;13.60;6.30;;;4.50;99.90;;;;;;5054376;28;20025;-72
2020/12/25 02:04:59;;;;;;;11.13;5.80;;;4.60;99.90;;;;;;5036333;28;20131;-73
2020/12/25 02:07:24;;;;;;;12.70;5.93;;;4.60;99.90;;;;;;5028214;23;20041;-76
2020/12/25 02:09:50;;;;;;;13.05;5.95;;;4.60;99.90;;;;;;4997874;28;20033;-76
2020/12/25 02:12:16;;;;;;;15.98;6.38;;;4.60;99.90;;;;;;5015459;28;20379;-75
2020/12/25 02:14:42;;;;;;;15.18;6.57;;;4.60;99.90;;;;;;4997836;28;20056;-76
2020/12/25 02:17:08;;;;;;;14.07;5.97;;;4.50;99.90;;;;;;5013499;28;20029;-76
2020/12/25 02:19:37;;;;;;;10.52;5.70;;;4.50;99.90;;;;;;5012534;28;20449;-77
2020/12/25 02:22:04;;;;;;;12.87;6.43;;;4.40;99.90;;;;;;4997737;28;20164;-76
2020/12/25 02:24:29;;;;;;;13.10;5.57;;;4.20;99.90;;;;;;5012730;28;20265;-77
2020/12/25 02:26:55;;;;;;;9.98;5.90;;;4.20;99.90;;;;;;5014437;28;20030;-75
2020/12/25 02:29:20;;;;;;;13.75;6.03;;;4.20;99.90;;;;;;5014924;28;20034;-77
2020/12/25 02:31:46;;;;;;;13.10;6.70;;;4.20;99.90;;;;;;5015030;28;20041;-76
2020/12/25 02:34:11;;;;;;;13.85;6.55;;;4.10;99.90;;;;;;4997421;28;20030;-76
2020/12/25 02:36:37;;;;;;;15.98;6.72;;;4.10;99.90;;;;;;5014161;28;20018;-75
2020/12/25 02:39:04;;;;;;;12.75;6.38;;;4.00;99.90;;;;;;5013571;28;20112;-77
2020/12/25 02:41:30;;;;;;;12.57;6.53;;;4.10;99.90;;;;;;4997312;28;20036;-77
2020/12/25 02:43:56;;;;;;;14.05;6.53;;;3.90;99.90;;;;;;5014725;28;20410;-75
2020/12/25 02:46:21;;;;;;;15.23;6.50;;;4.00;99.90;;;;;;5012811;28;20380;-77
2020/12/25 02:48:47;;;;;;;12.70;5.82;;;4.00;99.90;;;;;;5014504;28;20070;-76
2020/12/25 02:51:17;;;;;;;14.80;6.50;;;4.00;99.90;;;;;;4996904;28;20835;-77
2020/12/25 02:53:43;;;;;;;13.02;6.70;;;4.20;99.90;;;;;;4997192;28;20046;-77
2020/12/25 02:56:08;;;;;;;14.45;7.05;;;4.10;99.90;;;;;;5013759;28;20065;-77
2020/12/25 02:58:34;;;;;;;12.98;6.15;;;4.10;99.90;;;;;;5013363;28;20022;-76
2020/12/25 03:00:59;;;;;;;13.10;7.75;;;4.20;99.90;;;;;;5013280;28;20077;-77
2020/12/25 03:03:25;;;;;;;13.70;6.68;;;3.90;99.90;;;;;;5013263;28;20045;-76
2020/12/25 03:05:50;;;;;;;16.30;6.80;;;4.00;99.90;;;;;;5011235;28;20018;-77
2020/12/25 03:08:16;;;;;;;15.88;7.60;;;3.90;99.90;;;;;;5012591;28;20519;-75
2020/12/25 03:10:41;;;;;;;13.00;6.80;;;4.00;99.90;;;;;;5012992;28;20626;-75
2020/12/25 03:13:07;;;;;;;14.98;7.68;;;3.90;99.90;;;;;;5014202;28;20026;-77
2020/12/25 03:15:32;;;;;;;14.27;7.53;;;4.00;99.90;;;;;;5012950;28;20033;-77
2020/12/25 03:17:58;;;;;;;10.95;6.22;;;3.90;99.90;;;;;;5012273;28;20040;-76
2020/12/25 03:20:23;;;;;;;13.82;7.05;;;4.00;99.90;;;;;;5014107;28;20108;-77
2020/12/25 03:22:49;;;;;;;13.40;7.65;;;3.90;99.90;;;;;;5012775;28;20026;-76
2020/12/25 03:25:14;;;;;;;15.25;7.15;;;3.80;99.90;;;;;;5012653;28;20022;-75
2020/12/25 03:27:40;;;;;;;14.57;7.75;;;3.80;99.90;;;;;;5012106;28;20034;-75
2020/12/25 03:30:05;;;;;;;13.85;7.28;;;3.90;99.90;;;;;;5012554;28;20030;-76
2020/12/25 03:32:31;;;;;;;13.13;6.93;;;3.90;99.90;;;;;;5012666;28;20179;-76
2020/12/25 03:34:56;;;;;;;14.75;8.00;;;4.00;99.90;;;;;;5013761;28;20093;-76
2020/12/25 03:37:22;;;;;;;12.57;6.30;;;4.00;99.90;;;;;;5013050;28;20056;-76
2020/12/25 03:39:47;;;;;;;13.63;6.50;;;4.00;99.90;;;;;;5012524;28;20480;-76
2020/12/25 03:42:13;;;;;;;13.82;7.25;;;4.00;99.90;;;;;;5012416;28;20036;-75
2020/12/25 03:44:38;;;;;;;12.63;6.50;;;3.90;99.90;;;;;;5012476;28;20052;-75
2020/12/25 03:47:04;;;;;;;14.77;6.50;;;4.00;99.90;;;;;;5011677;28;20400;-77
2020/12/25 03:49:29;;;;;;;11.50;6.32;;;4.00;99.90;;;;;;5013453;28;20041;-77
2020/12/25 03:51:55;;;;;;;18.25;7.20;;;4.00;99.90;;;;;;5012282;28;20018;-75
2020/12/25 03:54:20;;;;;;;13.13;6.90;;;4.00;99.90;;;;;;5012265;28;20131;-76
2020/12/25 03:56:46;;;;;;;13.60;6.57;;;4.00;99.90;;;;;;5011596;28;20606;-76
2020/12/25 03:59:11;;;;;;;10.38;5.30;;;3.90;99.90;;;;;;5013586;28;20038;-77
2020/12/25 04:01:37;;;;;;;11.20;5.70;;;4.00;99.90;;;;;;5013209;28;20022;-75
2020/12/25 04:04:02;;;;;;;11.95;5.97;;;4.00;99.90;;;;;;5011768;28;20038;-77
2020/12/25 04:06:28;;;;;;;12.02;4.85;;;4.00;99.90;;;;;;5010980;28;20092;-77
2020/12/25 04:08:53;;;;;;;8.85;4.53;;;4.10;99.90;;;;;;5010819;28;20108;-75
2020/12/25 04:11:19;;;;;;;7.80;4.30;;;4.00;99.90;;;;;;5011303;28;20032;-75
2020/12/25 04:13:45;;;;;;;6.25;3.20;;;4.00;99.90;;;;;;5011172;28;20026;-75
2020/12/25 04:16:10;;;;;;;8.52;3.70;;;3.90;99.90;;;;;;5010549;28;20026;-75
2020/12/25 04:18:36;;;;;;;5.63;2.63;;;3.90;99.90;;;;;;5011073;28;20018;-75
2020/12/25 04:21:01;;;;;;;5.93;2.67;;;3.80;99.90;;;;;;5012283;28;20060;-75
2020/12/25 04:23:30;;;;;;;6.88;2.70;;;3.90;99.90;;;;;;5011039;28;20065;-75
2020/12/25 04:25:56;;;;;;;5.72;2.53;;;3.90;99.90;;;;;;5011026;28;20125;-75
2020/12/25 04:28:22;;;;;;;6.35;2.58;;;3.90;99.90;;;;;;5010330;28;20054;-74
2020/12/25 04:30:47;;;;;;;5.95;2.22;;;3.80;99.90;;;;;;5010916;28;20030;-75
2020/12/25 04:33:13;;;;;;;6.00;2.72;;;3.80;99.90;;;;;;5012087;28;20025;-75
2020/12/25 04:35:39;;;;;;;4.88;2.10;;;3.70;99.90;;;;;;5010818;28;20050;-75
2020/12/25 04:38:04;;;;;;;4.25;1.80;;;3.70;99.90;;;;;;5011486;28;20021;-75
2020/12/25 04:40:30;;;;;;;7.35;3.53;;;3.80;99.90;;;;;;5011962;28;20026;-75
2020/12/25 04:42:57;;;;;;;5.28;2.33;;;3.70;99.90;;;;;;5011955;28;20022;-75
2020/12/25 04:45:23;;;;;;;5.57;2.25;;;3.70;99.90;;;;;;5010661;28;20029;-75
2020/12/25 04:47:51;;;;;;;7.35;3.22;;;3.70;99.90;;;;;;5009820;28;20026;-75
2020/12/25 04:50:17;;;;;;;5.25;2.38;;;3.80;99.90;;;;;;4994252;28;20026;-76
2020/12/25 04:52:47;;;;;;;4.80;2.03;;;3.70;99.90;;;;;;5010474;28;20026;-75
2020/12/25 04:55:12;;;;;;;4.60;2.38;;;3.80;99.90;;;;;;5012060;28;20032;-75
2020/12/25 04:57:38;;;;;;;5.25;2.30;;;3.70;99.90;;;;;;5009774;28;20026;-75
2020/12/25 05:00:16;;;;;;;5.32;2.40;;;3.80;99.90;;;;;;5011685;28;20030;-75
2020/12/25 05:02:41;;;;;;;4.85;2.33;;;3.80;99.90;;;;;;4993961;28;20030;-76
2020/12/25 05:05:07;;;;;;;4.50;1.88;;;3.70;99.90;;;;;;5010374;28;20022;-75
2020/12/25 05:07:33;;;;;;;5.32;2.35;;;3.70;99.90;;;;;;5010912;28;20037;-76
2020/12/25 05:09:59;;;;;;;3.53;1.90;;;3.80;99.90;;;;;;5010296;28;20022;-75
2020/12/25 05:12:26;;;;;;;4.70;2.38;;;3.90;99.90;;;;;;5010298;28;20076;-75
2020/12/25 05:14:52;;;;;;;5.93;2.45;;;4.00;99.90;;;;;;5011424;28;20033;-75
2020/12/25 05:17:21;;;;;;;4.90;2.42;;;3.90;99.90;;;;;;5009531;28;20076;-75
2020/12/25 05:19:48;;;;;;;7.03;3.22;;;3.80;99.90;;;;;;4992978;28;20026;-75
2020/12/25 05:22:18;;;;;;;5.90;2.55;;;3.80;99.90;;;;;;5011403;28;20033;-76
2020/12/25 05:24:43;;;;;;;6.32;2.35;;;3.80;99.90;;;;;;4994028;28;20026;-75
2020/12/25 05:27:13;;;;;;;6.13;2.35;;;3.90;99.90;;;;;;5009379;28;20492;-77
2020/12/25 05:29:39;;;;;;;8.13;2.38;;;3.90;99.90;;;;;;5011327;28;20018;-75
2020/12/25 05:32:06;;;;;;;5.88;2.40;;;3.80;99.90;;;;;;4993731;28;20060;-75
2020/12/25 05:34:34;;;;;;;5.68;2.42;;;3.90;99.90;;;;;;4993771;28;20030;-76
2020/12/25 05:37:02;;;;;;;5.55;2.58;;;3.80;99.90;;;;;;4993020;28;20022;-76
2020/12/25 05:39:30;;;;;;;6.95;3.70;;;3.70;99.90;;;;;;4993759;28;20519;-75
2020/12/25 05:41:58;;;;;;;7.68;2.70;;;3.80;99.90;;;;;;4993931;28;20037;-75
2020/12/25 05:44:26;;;;;;;9.25;3.15;;;3.70;99.90;;;;;;4993743;28;20030;-76
2020/12/25 05:46:52;;;;;;;4.97;2.20;;;3.80;99.90;;;;;;5009277;28;20033;-75
2020/12/25 05:49:17;;;;;;;9.98;2.40;;;3.70;99.90;;;;;;4993592;28;20084;-75
2020/12/25 05:51:49;;;;;;;5.22;2.20;;;3.70;99.90;;;;;;5011187;28;20468;-75
2020/12/25 05:54:20;;;;;;;7.15;2.03;;;3.70;99.90;;;;;;5009947;28;20022;-75
2020/12/25 05:56:50;;;;;;;7.22;3.05;;;3.70;99.90;;;;;;5009397;28;20022;-75
2020/12/25 05:59:21;;;;;;;6.10;1.88;;;3.60;99.90;;;;;;4993838;28;20033;-75
2020/12/25 06:01:46;;;;;;;7.63;1.90;;;3.50;99.90;;;;;;4993529;28;20385;-76
2020/12/25 06:04:12;;;;;;;5.15;2.00;;;3.50;99.90;;;;;;5011136;28;20042;-75
2020/12/25 06:06:39;;;;;;;7.80;2.83;;;3.50;99.90;;;;;;5010298;28;20129;-75
2020/12/25 06:09:06;;;;;;;6.07;1.92;;;3.40;99.90;;;;;;5010733;28;20064;-75
2020/12/25 06:11:32;;;;;;;7.00;2.00;;;3.40;99.90;;;;;;5009877;28;20048;-75
2020/12/25 06:13:58;;;;;;;5.93;1.70;;;3.40;99.90;;;;;;5011158;28;20535;-75
2020/12/25 06:16:26;;;;;;;9.35;1.52;;;3.50;99.90;;;;;;5010408;28;20075;-75
2020/12/25 06:19:10;;;;;;;6.05;1.80;;;3.60;99.10;;;;;;5009904;28;20025;-75
2020/12/25 06:21:44;;;;;;;5.88;1.73;;;3.50;99.40;;;;;;5011128;28;20072;-75
2020/12/25 06:24:14;;;;;;;5.90;2.03;;;3.50;99.90;;;;;;4993630;28;20029;-75
2020/12/25 06:26:41;;;;;;;2.20;1.20;;;3.50;99.60;;;;;;5009266;28;20033;-74
2020/12/25 06:29:06;;;;;;;4.95;1.42;;;3.50;99.30;;;;;;5011075;28;20034;-75
2020/12/25 06:31:43;;;;;;;6.30;1.40;;;3.50;99.60;;;;;;5012932;28;20087;-75
2020/12/25 06:34:09;;;;;;;3.47;1.55;;;3.40;99.80;;;;;;4997298;28;20391;-75
2020/12/25 06:36:36;;;;;;;6.00;1.70;;;3.50;98.90;;;;;;5012884;28;20112;-75
2020/12/25 06:39:10;;;;;;;5.70;1.90;;;3.50;99.40;;;;;;4996908;28;20037;-75
2020/12/25 06:41:39;;;;;;;7.25;1.88;;;3.40;99.30;;;;;;5013347;28;20030;-76
2020/12/25 06:44:15;;;;;;;4.15;1.75;;;3.40;98.90;;;;;;4996795;28;20034;-76
2020/12/25 06:46:49;;;;;;;7.25;1.70;;;3.40;99.00;;;;;;4996170;28;20062;-76
2020/12/25 06:49:15;;;;;;;6.18;1.50;;;3.40;98.50;;;;;;4996723;28;20097;-76
2020/12/25 06:51:46;;;;;;;6.20;1.65;;;3.40;98.60;;;;;;4996819;28;20022;-76
2020/12/25 06:54:21;;;;;;;3.28;1.63;;;3.40;97.70;;;;;;4996850;28;20075;-76
2020/12/25 06:56:54;;;;;;;7.57;1.70;;;3.40;98.50;;;;;;4995883;28;20022;-77
2020/12/25 06:59:21;;;;;;;4.45;1.50;;;3.30;98.30;;;;;;4996424;28;20026;-76
2020/12/25 07:01:49;;;;;;;3.95;1.50;;;3.30;97.10;;;;;;5013127;28;20026;-76
2020/12/25 07:04:29;;;;;;;6.82;1.40;;;3.30;97.30;;;;;;5014149;28;20025;-76
2020/12/25 07:07:01;;;;;;;6.88;1.40;;;3.30;97.00;;;;;;4995759;28;20044;-76
2020/12/25 07:09:41;;;;;;;3.78;1.40;;;3.20;97.20;;;;;;4996367;28;20480;-77
2020/12/25 07:12:20;;;;;;;6.53;1.98;;;3.10;97.30;;;;;;4996478;28;20026;-76
2020/12/25 07:14:46;;;;;;;6.60;1.67;;;3.10;96.60;;;;;;4996397;28;20022;-76
2020/12/25 07:17:12;;;;;;;5.43;1.23;;;3.00;96.60;;;;;;4995569;28;20057;-77
2020/12/25 07:19:39;;;;;;;6.93;1.60;;;3.10;96.80;;;;;;5013940;28;20408;-76
2020/12/25 07:22:06;;;;;;;4.03;1.45;;;3.20;95.80;;;;;;5013809;28;20028;-76
2020/12/25 07:24:32;;;;;;;3.25;1.00;;;3.20;96.50;;;;;;4996275;28;20036;-76
2020/12/25 07:26:57;;;;;;;2.55;0.90;;;3.20;95.50;;;;;;5012946;28;20025;-76
2020/12/25 07:29:24;;;;;;;3.00;1.10;;;3.20;95.40;;;;;;5013647;28;20030;-76
2020/12/25 07:31:52;;;;;;;6.53;1.27;;;3.10;96.00;;;;;;5012400;28;20029;-76
2020/12/25 07:34:23;;;;;;;4.25;0.98;;;3.10;96.10;;;;;;4996054;28;20396;-76
2020/12/25 07:36:50;;;;;;;3.40;1.20;;;3.10;95.00;;;;;;5012831;28;20034;-77
2020/12/25 07:39:17;;;;;;;2.65;1.10;;;3.00;95.30;;;;;;5013011;28;20060;-76
2020/12/25 07:41:43;;;;;;;3.83;1.15;;;3.00;95.40;;;;;;4995354;28;20484;-74
2020/12/25 07:44:08;;;;;;;2.15;0.80;;;3.00;95.20;;;;;;5011343;28;20030;-76
2020/12/25 07:46:34;;;;;;;7.40;1.90;;;3.10;94.60;;;;;;5012414;28;20030;-76
2020/12/25 07:49:01;;;;;;;8.10;2.28;;;3.00;95.60;;;;;;5013061;28;20022;-75
2020/12/25 07:51:28;;;;;;;4.75;1.88;;;3.00;95.90;;;;;;4995857;28;20045;-77
2020/12/25 07:53:58;;;;;;;4.43;1.00;;;3.10;95.60;;;;;;4995980;28;20026;-80
2020/12/25 07:56:27;;;;;;;5.43;1.77;;;3.10;95.80;;;;;;5012664;28;20033;-76
2020/12/25 07:58:53;;;;;;;7.68;1.23;;;3.10;95.80;;;;;;4995740;28;20523;-76
2020/12/25 08:01:21;;;;;;;6.75;1.30;;;3.10;95.90;;;;;;4993565;28;20034;-77
2020/12/25 08:03:47;;;;;;;7.30;1.38;;;3.00;96.10;;;;;;4994979;28;20050;-75
2020/12/25 08:06:14;;;;;;;4.68;1.17;;;3.00;96.30;;;;;;5054155;22;20041;-72
2020/12/25 08:08:52;;;;;;;4.22;1.23;;;3.00;96.50;;;;;;5032207;28;20045;-71
2020/12/25 08:11:19;;;;;;;4.75;1.27;;;3.10;95.50;;;;;;5030875;28;20021;-70
2020/12/25 08:13:49;;;;;;;6.13;2.08;;;3.10;96.00;;;;;;5030942;28;20768;-70
2020/12/25 08:16:16;;;;;;;8.25;1.13;;;3.00;96.40;;;;;;5029126;28;20056;-72
2020/12/25 08:18:41;;;;;;;6.53;1.77;;;3.10;96.60;;;;;;5012344;28;20025;-72
2020/12/25 08:21:07;;;;;;;5.90;1.48;;;3.30;96.00;;;;;;5012331;28;20663;-71
2020/12/25 08:23:36;;;;;;;7.07;1.63;;;3.40;95.90;;;;;;5012207;28;20034;-69
2020/12/25 08:26:07;;;;;;;5.60;2.22;;;3.30;97.60;;;;;;5010533;28;20041;-69
2020/12/25 08:28:33;;;;;;;5.97;2.53;;;3.40;98.10;;;;;;5010874;28;20111;-70
2020/12/25 08:31:12;;;;;;;10.80;2.58;;;3.40;96.80;;;;;;5010948;28;20061;-70
2020/12/25 08:33:38;;;;;;;9.63;3.38;;;3.30;96.20;;;;;;4999903;28;20029;-71
2020/12/25 08:36:11;;;;;;;8.75;2.50;;;3.10;97.70;;;;;;5011776;28;20026;-71
2020/12/25 08:38:41;;;;;;;6.47;1.48;;;3.10;98.40;;;;;;5011073;28;20468;-71
2020/12/25 08:41:06;;;;;;;3.67;1.02;;;3.30;97.20;;;;;;5012142;28;20026;-70
2020/12/25 08:43:32;;;;;;;4.35;1.23;;;3.40;97.10;;;;;;5010744;28;20447;-70
2020/12/25 08:46:05;;;;;;;5.78;2.70;;;3.20;97.40;;;;;;5011744;28;20467;-70
2020/12/25 08:48:32;;;;;;;3.53;1.30;;;3.20;97.70;;;;;;5011743;28;20033;-70
2020/12/25 08:51:12;;;;;;;2.45;0.88;;;3.20;97.70;;;;;;5004846;28;20487;-70
2020/12/25 08:53:39;;;;;;;3.50;1.15;;;3.20;98.60;;;;;;5007955;28;20112;-70
2020/12/25 08:56:16;;;;;;;2.20;0.90;;;3.20;98.40;;;;;;5010916;28;20057;-70
2020/12/25 08:58:53;;;;;;;3.55;1.00;;;3.20;98.30;;;;;;5011597;28;20165;-70
2020/12/25 09:01:19;;;;;;;6.53;2.92;;;3.20;98.00;;;;;;5010021;28;20025;-70
2020/12/25 09:03:44;;;;;;;5.75;2.10;;;3.10;98.30;;;;;;5011480;28;20018;-71
2020/12/25 09:06:10;;;;;;;4.78;1.75;;;3.10;98.60;;;;;;5010644;28;20044;-71
2020/12/25 09:08:36;;;;;;;4.45;1.17;;;3.10;98.60;;;;;;5011307;28;20022;-70
2020/12/25 09:11:10;;;;;;;2.72;1.70;;;3.10;98.70;;;;;;5011424;28;20104;-72
2020/12/25 09:13:36;;;;;;;4.15;1.50;;;3.30;97.90;;;;;;5011427;28;20033;-71
2020/12/25 09:16:04;;;;;;;3.95;1.20;;;3.20;98.40;;;;;;5010841;28;20025;-70
2020/12/25 09:18:29;;;;;;;4.18;1.50;;;3.30;98.50;;;;;;5011196;28;20037;-71
2020/12/25 09:20:55;;;;;;;5.45;1.40;;;3.40;98.70;;;;;;5010038;28;20032;-71
2020/12/25 09:23:20;;;;;;;6.35;1.85;;;3.50;98.40;;;;;;5009806;28;20053;-70
2020/12/25 09:25:46;;;;;;;3.45;1.60;;;3.50;98.10;;;;;;5011204;28;20044;-71
2020/12/25 09:28:11;;;;;;;3.47;1.27;;;3.50;98.60;;;;;;5010502;28;20030;-71
2020/12/25 09:30:37;;;;;;;3.75;1.50;;;3.50;98.20;;;;;;5011107;28;20030;-71
2020/12/25 09:33:03;;;;;;;9.90;3.33;;;3.50;98.40;;;;;;5011060;28;20030;-71
2020/12/25 09:35:28;;;;;;;6.68;1.45;;;3.40;98.00;;;;;;5011255;28;20022;-71
2020/12/25 09:37:54;;;;;;;12.23;5.72;;;3.60;98.20;;;;;;5010402;28;20153;-71
2020/12/25 09:40:19;;;;;;;7.45;1.60;;;3.70;97.50;;;;;;5009926;28;20635;-71
2020/12/25 09:42:45;;;;;;;8.00;1.90;;;3.60;97.90;;;;;;5009803;28;20491;-71
2020/12/25 09:45:11;;;;;;;7.45;2.15;;;3.70;97.30;;;;;;5011107;28;20542;-71
2020/12/25 09:47:36;;;;;;;5.28;1.15;;;3.70;97.10;;;;;;5010352;28;20412;-71
2020/12/25 09:50:03;;;;;;;4.22;1.50;;;3.70;97.00;;;;;;5011025;28;20066;-71
2020/12/25 09:52:28;;;;;;;4.45;1.63;;;3.80;97.10;;;;;;5011040;28;20029;-71
2020/12/25 09:54:54;;;;;;;7.35;1.77;;;3.80;97.20;;;;;;5011002;28;20026;-71
2020/12/25 09:57:19;;;;;;;5.18;2.53;;;3.70;97.20;;;;;;5008879;28;20060;-70
2020/12/25 09:59:45;;;;;;;5.45;1.67;;;3.70;97.40;;;;;;5010985;28;20054;-70
2020/12/25 10:02:10;;;;;;;4.65;1.65;;;3.60;97.50;;;;;;5009698;28;20054;-70
2020/12/25 10:04:36;;;;;;;5.82;2.13;;;3.70;97.40;;;;;;5009687;28;20026;-71
2020/12/25 10:07:01;;;;;;;5.18;1.40;;;3.70;97.50;;;;;;5012889;28;20038;-70
2020/12/25 10:09:27;;;;;;;8.25;2.05;;;3.70;97.00;;;;;;5014618;28;20088;-71
2020/12/25 10:11:54;;;;;;;4.03;1.63;;;3.60;97.90;;;;;;5013315;28;20060;-71
2020/12/25 10:14:22;;;;;;;5.68;2.20;;;3.60;98.70;;;;;;5013414;28;20037;-71
2020/12/25 10:16:48;;;;;;;5.38;1.98;;;3.60;98.80;;;;;;5013966;28;20022;-71
2020/12/25 10:19:13;;;;;;;5.15;1.80;;;3.60;98.60;;;;;;5013325;28;20025;-71
2020/12/25 10:21:40;;;;;;;7.15;2.22;;;3.80;97.60;;;;;;5013175;28;20036;-71
2020/12/25 10:24:09;;;;;;;4.82;1.65;;;3.90;97.70;;;;;;5014500;28;20141;-71
2020/12/25 10:26:34;;;;;;;6.72;1.95;;;4.10;96.80;;;;;;5012376;28;20030;-71
2020/12/25 10:29:00;;;;;;;5.80;1.98;;;4.00;97.10;;;;;;5013099;28;20084;-71
2020/12/25 10:31:26;;;;;;;7.10;2.30;;;3.90;97.10;;;;;;5012879;28;20096;-70
2020/12/25 10:33:51;;;;;;;4.78;1.63;;;4.00;97.30;;;;;;5012835;28;20025;-70
2020/12/25 10:36:23;;;;;;;4.50;2.10;;;4.10;97.20;;;;;;5012307;28;20542;-71
2020/12/25 10:38:48;;;;;;;9.93;4.13;;;4.10;96.60;;;;;;5014359;28;20021;-71
2020/12/25 10:41:14;;;;;;;6.88;2.83;;;4.00;97.70;;;;;;5013248;28;20026;-70
2020/12/25 10:43:39;;;;;;;6.45;2.30;;;4.10;96.70;;;;;;5013225;28;20518;-70
2020/12/25 10:46:05;;;;;;;6.82;2.58;;;4.00;96.70;;;;;;5013979;28;20105;-71
2020/12/25 10:48:30;;;;;;;3.95;1.92;;;3.80;97.70;;;;;;5014219;28;20022;-70
2020/12/25 10:50:56;;;;;;;8.50;3.40;;;3.70;97.50;;;;;;5012912;28;20026;-70
2020/12/25 10:53:21;;;;;;;10.13;3.75;;;3.80;97.90;;;;;;5014123;28;20030;-72
2020/12/25 10:55:47;;;;;;;7.53;2.92;;;3.90;97.50;;;;;;5014153;28;20022;-70
2020/12/25 10:58:12;;;;;;;9.10;3.72;;;3.70;97.00;;;;;;5013374;28;20030;-70
2020/12/25 11:00:38;;;;;;;7.88;3.60;;;3.50;97.60;;;;;;5013996;28;20030;-70
2020/12/25 11:03:03;;;;;;;10.30;4.72;;;3.50;97.90;;;;;;5012665;28;20029;-71
2020/12/25 11:05:29;;;;;;;9.82;4.88;;;3.40;98.40;;;;;;5012618;28;20038;-70
2020/12/25 11:07:57;;;;;;;9.20;5.03;;;3.40;98.60;;;;;;5012889;28;20470;-71
2020/12/25 11:10:23;;;;;;;7.70;4.72;;;3.40;98.60;;;;;;5012062;28;20030;-70
2020/12/25 11:12:49;;;;;;;12.07;5.35;;;3.40;98.30;;;;;;5013630;28;20437;-71
2020/12/25 11:15:14;;;;;;;11.88;5.22;;;3.50;98.30;;;;;;5013665;28;20018;-70
2020/12/25 11:17:40;;;;;;;10.98;5.68;;;3.40;98.30;;;;;;5011442;28;20036;-71
2020/12/25 11:20:05;;;;;;;8.88;4.38;;;3.50;98.30;;;;;;5012184;28;20022;-70
2020/12/25 11:22:31;;;;;;;8.90;4.50;;;3.50;98.10;;;;;;5013364;28;20030;-71
2020/12/25 11:24:56;;;;;;;10.93;5.65;;;3.50;97.60;;;;;;5013341;28;20081;-71
2020/12/25 11:27:22;;;;;;;8.60;4.63;;;3.50;98.60;;;;;;5011376;28;20026;-71
2020/12/25 11:29:48;;;;;;;10.70;5.10;;;3.60;98.20;;;;;;5013292;28;20396;-71
2020/12/25 11:32:13;;;;;;;10.07;4.40;;;3.60;97.80;;;;;;5013304;28;20476;-70
2020/12/25 11:34:39;;;;;;;8.32;4.38;;;3.60;98.50;;;;;;5011766;28;20026;-71
2020/12/25 11:37:04;;;;;;;9.95;4.13;;;3.70;97.90;;;;;;5011191;28;20192;-70
2020/12/25 11:39:30;;;;;;;9.25;4.95;;;3.70;97.80;;;;;;5011781;28;20022;-71
2020/12/25 11:41:55;;;;;;;8.13;4.50;;;3.70;98.10;;;;;;5011744;28;20037;-70
2020/12/25 11:44:21;;;;;;;8.15;4.20;;;3.70;97.50;;;;;;5011735;28;20030;-70
2020/12/25 11:46:46;;;;;;;9.13;4.82;;;3.60;97.50;;;;;;5011037;28;20088;-70
2020/12/25 11:49:12;;;;;;;9.90;5.80;;;3.50;98.10;;;;;;5011569;28;20107;-70
2020/12/25 11:51:37;;;;;;;9.15;4.28;;;3.50;98.40;;;;;;5012857;28;20387;-71
2020/12/25 11:54:03;;;;;;;11.00;4.75;;;3.60;98.10;;;;;;5012759;28;20583;-71
2020/12/25 11:56:30;;;;;;;7.38;4.03;;;3.60;97.20;;;;;;5010750;28;20029;-71
2020/12/25 11:58:59;;;;;;;6.75;3.47;;;3.50;97.40;;;;;;5012773;28;20022;-70
2020/12/25 12:01:25;;;;;;;6.43;3.10;;;3.50;97.10;;;;;;5012745;28;20427;-71
2020/12/25 12:03:50;;;;;;;9.02;3.70;;;3.60;96.30;;;;;;5011476;28;20022;-70
2020/12/25 12:06:20;;;;;;;7.85;3.38;;;3.60;97.20;;;;;;5011749;28;20101;-71
2020/12/25 12:08:46;;;;;;;6.05;2.92;;;3.50;96.60;;;;;;5011232;28;20022;-70
2020/12/25 12:11:12;;;;;;;6.80;3.30;;;3.70;96.00;;;;;;5011265;28;20084;-70
2020/12/25 12:13:38;;;;;;;8.50;3.78;;;3.70;95.30;;;;;;5012611;28;20101;-71
2020/12/25 12:16:03;;;;;;;6.25;2.80;;;3.70;95.70;;;;;;5011013;28;20480;-70
2020/12/25 12:18:29;;;;;;;7.32;4.05;;;3.70;95.30;;;;;;5012272;28;20381;-70
2020/12/25 12:20:55;;;;;;;5.90;3.03;;;3.60;95.70;;;;;;5012358;28;20025;-70
2020/12/25 12:23:21;;;;;;;5.10;2.50;;;3.80;95.40;;;;;;5010986;28;20441;-71
2020/12/25 12:25:46;;;;;;;6.88;2.88;;;3.80;95.00;;;;;;5012378;28;20096;-71
2020/12/25 12:28:12;;;;;;;5.72;3.03;;;3.80;94.90;;;;;;5009979;28;20053;-71
2020/12/25 12:30:37;;;;;;;7.20;3.67;;;3.70;95.50;;;;;;5011921;28;20141;-70
2020/12/25 12:33:03;;;;;;;8.85;3.67;;;3.70;95.30;;;;;;5010784;28;20056;-70
2020/12/25 12:35:29;;;;;;;7.03;3.50;;;3.80;95.70;;;;;;5012161;28;20698;-71
2020/12/25 12:37:54;;;;;;;5.53;2.88;;;3.90;95.60;;;;;;5010172;28;20026;-70
2020/12/25 12:40:20;;;;;;;5.95;2.75;;;3.90;95.20;;;;;;5012101;28;20037;-71
2020/12/25 12:42:45;;;;;;;7.47;3.58;;;3.90;94.50;;;;;;5012077;28;20037;-70
2020/12/25 12:45:11;;;;;;;8.65;4.47;;;3.80;95.40;;;;;;5012054;28;20045;-71
2020/12/25 12:47:37;;;;;;;8.00;3.35;;;3.90;95.40;;;;;;5011327;28;20431;-71
2020/12/25 12:50:07;;;;;;;4.70;2.28;;;3.80;94.40;;;;;;5011819;28;20484;-71